sensor_id;sensor_type;location;lat;lon;timestamp;pressure;altitude;pressure_sealevel;temperature;humidity
76551;BME280;68768;53.156;18.164;2023-10-19T00:00:33;100899.67;;;5.32;75.21
76551;BME280;68768;53.156;18.164;2023-10-19T00:03:21;100896.89;;;5.30;75.22
76551;BME280;68768;53.156;18.164;2023-10-19T00:05:50;100896.09;;;5.25;75.33
76551;BME280;68768;53.156;18.164;2023-10-19T00:08:17;100891.59;;;5.19;75.86
76551;BME280;68768;53.156;18.164;2023-10-19T00:10:49;100883.75;;;5.12;75.83
76551;BME280;68768;53.156;18.164;2023-10-19T00:13:28;100879.41;;;5.08;75.61
76551;BME280;68768;53.156;18.164;2023-10-19T00:15:56;100877.52;;;5.05;75.72
76551;BME280;68768;53.156;18.164;2023-10-19T00:18:24;100876.85;;;5.01;75.54
76551;BME280;68768;53.156;18.164;2023-10-19T00:20:53;100874.08;;;4.98;75.76
76551;BME280;68768;53.156;18.164;2023-10-19T00:23:26;100874.13;;;4.96;76.35
76551;BME280;68768;53.156;18.164;2023-10-19T00:26:02;100873.82;;;4.91;76.35
76551;BME280;68768;53.156;18.164;2023-10-19T00:28:35;100871.41;;;4.88;76.33
76551;BME280;68768;53.156;18.164;2023-10-19T00:31:02;100863.52;;;4.86;76.43
76551;BME280;68768;53.156;18.164;2023-10-19T00:33:35;100860.71;;;4.87;76.53
76551;BME280;68768;53.156;18.164;2023-10-19T00:36:09;100858.09;;;4.85;76.67
76551;BME280;68768;53.156;18.164;2023-10-19T00:38:41;100854.80;;;4.80;76.66
76551;BME280;68768;53.156;18.164;2023-10-19T00:41:26;100848.55;;;4.73;76.80
76551;BME280;68768;53.156;18.164;2023-10-19T00:43:58;100846.71;;;4.66;76.81
76551;BME280;68768;53.156;18.164;2023-10-19T00:46:30;100839.71;;;4.63;77.02
76551;BME280;68768;53.156;18.164;2023-10-19T00:49:05;100841.87;;;4.60;77.66
76551;BME280;68768;53.156;18.164;2023-10-19T00:51:36;100843.50;;;4.56;77.62
76551;BME280;68768;53.156;18.164;2023-10-19T00:54:10;100838.59;;;4.54;77.78
76551;BME280;68768;53.156;18.164;2023-10-19T00:56:46;100839.14;;;4.52;77.79
76551;BME280;68768;53.156;18.164;2023-10-19T00:59:19;100837.63;;;4.47;78.67
76551;BME280;68768;53.156;18.164;2023-10-19T01:01:56;100835.41;;;4.40;78.64
76551;BME280;68768;53.156;18.164;2023-10-19T01:04:46;100833.52;;;4.36;78.68
76551;BME280;68768;53.156;18.164;2023-10-19T01:07:18;100838.48;;;4.32;78.62
76551;BME280;68768;53.156;18.164;2023-10-19T01:09:49;100839.42;;;4.27;79.71
76551;BME280;68768;53.156;18.164;2023-10-19T01:12:20;100836.66;;;4.21;79.58
76551;BME280;68768;53.156;18.164;2023-10-19T01:17:50;100829.38;;;4.13;78.94
76551;BME280;68768;53.156;18.164;2023-10-19T01:20:25;100827.45;;;4.10;78.82
76551;BME280;68768;53.156;18.164;2023-10-19T01:22:56;100822.40;;;4.08;78.98
76551;BME280;68768;53.156;18.164;2023-10-19T01:25:58;100818.20;;;4.06;78.95
76551;BME280;68768;53.156;18.164;2023-10-19T01:28:27;100814.36;;;4.05;79.02
76551;BME280;68768;53.156;18.164;2023-10-19T01:31:19;100813.84;;;4.04;79.02
76551;BME280;68768;53.156;18.164;2023-10-19T01:33:58;100814.73;;;4.04;78.85
76551;BME280;68768;53.156;18.164;2023-10-19T01:36:27;100815.77;;;4.03;78.99
76551;BME280;68768;53.156;18.164;2023-10-19T01:38:57;100809.11;;;4.01;79.04
76551;BME280;68768;53.156;18.164;2023-10-19T01:41:28;100806.31;;;3.99;79.00
76551;BME280;68768;53.156;18.164;2023-10-19T01:43:58;100802.85;;;3.96;79.18
76551;BME280;68768;53.156;18.164;2023-10-19T01:46:31;100800.07;;;3.94;79.41
76551;BME280;68768;53.156;18.164;2023-10-19T01:49:01;100793.39;;;3.95;79.37
76551;BME280;68768;53.156;18.164;2023-10-19T01:51:32;100790.76;;;3.95;79.29
76551;BME280;68768;53.156;18.164;2023-10-19T01:54:06;100786.71;;;3.95;79.29
76551;BME280;68768;53.156;18.164;2023-10-19T01:56:34;100779.17;;;3.94;79.30
76551;BME280;68768;53.156;18.164;2023-10-19T01:59:05;100775.49;;;3.92;79.27
76551;BME280;68768;53.156;18.164;2023-10-19T02:01:32;100774.63;;;3.90;79.29
76551;BME280;68768;53.156;18.164;2023-10-19T02:04:00;100775.53;;;3.87;79.52
76551;BME280;68768;53.156;18.164;2023-10-19T02:06:30;100776.08;;;3.86;79.57
76551;BME280;68768;53.156;18.164;2023-10-19T02:09:03;100772.61;;;3.83;79.97
76551;BME280;68768;53.156;18.164;2023-10-19T02:11:52;100773.01;;;3.78;80.57
76551;BME280;68768;53.156;18.164;2023-10-19T02:14:26;100764.98;;;3.72;80.45
76551;BME280;68768;53.156;18.164;2023-10-19T02:16:58;100760.61;;;3.69;80.71
76551;BME280;68768;53.156;18.164;2023-10-19T02:19:27;100759.79;;;3.64;80.75
76551;BME280;68768;53.156;18.164;2023-10-19T02:22:00;100751.41;;;3.59;81.78
76551;BME280;68768;53.156;18.164;2023-10-19T02:24:31;100747.97;;;3.52;81.92
76551;BME280;68768;53.156;18.164;2023-10-19T02:26:59;100742.05;;;3.46;82.00
76551;BME280;68768;53.156;18.164;2023-10-19T02:29:28;100739.64;;;3.42;82.07
76551;BME280;68768;53.156;18.164;2023-10-19T02:31:56;100739.49;;;3.37;82.12
76551;BME280;68768;53.156;18.164;2023-10-19T02:34:23;100737.61;;;3.34;82.31
76551;BME280;68768;53.156;18.164;2023-10-19T02:36:50;100736.39;;;3.31;81.96
76551;BME280;68768;53.156;18.164;2023-10-19T02:39:17;100728.70;;;3.29;81.99
76551;BME280;68768;53.156;18.164;2023-10-19T02:41:46;100726.44;;;3.26;82.49
76551;BME280;68768;53.156;18.164;2023-10-19T02:44:19;100717.54;;;3.22;83.01
76551;BME280;68768;53.156;18.164;2023-10-19T02:46:49;100716.67;;;3.19;82.93
76551;BME280;68768;53.156;18.164;2023-10-19T02:49:18;100707.91;;;3.17;83.47
76551;BME280;68768;53.156;18.164;2023-10-19T02:51:50;100702.52;;;3.13;83.95
76551;BME280;68768;53.156;18.164;2023-10-19T02:54:19;100697.46;;;3.10;84.25
76551;BME280;68768;53.156;18.164;2023-10-19T02:56:48;100694.84;;;3.08;84.46
76551;BME280;68768;53.156;18.164;2023-10-19T02:59:17;100693.48;;;3.05;84.96
76551;BME280;68768;53.156;18.164;2023-10-19T03:01:55;100692.61;;;3.05;84.55
76551;BME280;68768;53.156;18.164;2023-10-19T03:04:38;100680.87;;;3.04;84.64
76551;BME280;68768;53.156;18.164;2023-10-19T03:07:06;100674.55;;;3.03;84.42
76551;BME280;68768;53.156;18.164;2023-10-19T03:09:38;100668.08;;;3.02;84.42
76551;BME280;68768;53.156;18.164;2023-10-19T03:12:05;100665.10;;;3.02;85.45
76551;BME280;68768;53.156;18.164;2023-10-19T03:14:36;100662.98;;;3.02;85.61
76551;BME280;68768;53.156;18.164;2023-10-19T03:17:04;100665.11;;;2.99;86.04
76551;BME280;68768;53.156;18.164;2023-10-19T03:19:32;100662.30;;;2.98;86.19
76551;BME280;68768;53.156;18.164;2023-10-19T03:22:01;100662.51;;;2.95;86.15
76551;BME280;68768;53.156;18.164;2023-10-19T03:24:28;100663.40;;;2.94;85.89
76551;BME280;68768;53.156;18.164;2023-10-19T03:27:12;100662.31;;;2.97;85.64
76551;BME280;68768;53.156;18.164;2023-10-19T03:29:41;100660.38;;;2.99;86.07
76551;BME280;68768;53.156;18.164;2023-10-19T03:32:14;100654.59;;;3.01;86.12
76551;BME280;68768;53.156;18.164;2023-10-19T03:34:42;100648.96;;;3.02;86.39
76551;BME280;68768;53.156;18.164;2023-10-19T03:37:14;100646.88;;;3.01;86.53
76551;BME280;68768;53.156;18.164;2023-10-19T03:39:41;100640.91;;;3.01;86.35
76551;BME280;68768;53.156;18.164;2023-10-19T03:42:12;100638.63;;;3.01;85.84
76551;BME280;68768;53.156;18.164;2023-10-19T03:44:40;100639.48;;;3.04;84.98
76551;BME280;68768;53.156;18.164;2023-10-19T03:47:17;100635.92;;;3.07;84.65
76551;BME280;68768;53.156;18.164;2023-10-19T03:50:04;100634.86;;;3.09;85.13
76551;BME280;68768;53.156;18.164;2023-10-19T03:52:36;100630.66;;;3.09;85.30
76551;BME280;68768;53.156;18.164;2023-10-19T03:55:07;100622.06;;;3.09;85.11
76551;BME280;68768;53.156;18.164;2023-10-19T03:57:50;100619.25;;;3.10;85.53
76551;BME280;68768;53.156;18.164;2023-10-19T04:00:19;100617.33;;;3.09;85.93
76551;BME280;68768;53.156;18.164;2023-10-19T04:02:52;100612.95;;;3.08;85.57
76551;BME280;68768;53.156;18.164;2023-10-19T04:05:20;100605.41;;;3.08;85.62
76551;BME280;68768;53.156;18.164;2023-10-19T04:07:49;100605.23;;;3.08;85.29
76551;BME280;68768;53.156;18.164;2023-10-19T04:10:18;100597.17;;;3.08;86.03
76551;BME280;68768;53.156;18.164;2023-10-19T04:13:05;100590.70;;;3.07;85.51
76551;BME280;68768;53.156;18.164;2023-10-19T04:15:36;100590.52;;;3.07;85.36
76551;BME280;68768;53.156;18.164;2023-10-19T04:18:04;100592.45;;;3.08;84.72
76551;BME280;68768;53.156;18.164;2023-10-19T04:20:38;100590.52;;;3.09;84.69
76551;BME280;68768;53.156;18.164;2023-10-19T04:23:17;100597.52;;;3.10;84.71
76551;BME280;68768;53.156;18.164;2023-10-19T04:25:44;100598.73;;;3.11;84.44
76551;BME280;68768;53.156;18.164;2023-10-19T04:28:13;100604.69;;;3.13;84.41
76551;BME280;68768;53.156;18.164;2023-10-19T04:30:40;100604.16;;;3.13;84.61
76551;BME280;68768;53.156;18.164;2023-10-19T04:33:08;100606.08;;;3.14;84.35
76551;BME280;68768;53.156;18.164;2023-10-19T04:35:38;100599.56;;;3.15;84.10
76551;BME280;68768;53.156;18.164;2023-10-19T04:38:07;100600.41;;;3.18;84.51
76551;BME280;68768;53.156;18.164;2023-10-19T04:40:34;100598.64;;;3.20;84.59
76551;BME280;68768;53.156;18.164;2023-10-19T04:43:02;100589.88;;;3.20;84.81
76551;BME280;68768;53.156;18.164;2023-10-19T04:45:31;100584.27;;;3.18;84.66
76551;BME280;68768;53.156;18.164;2023-10-19T04:47:58;100581.64;;;3.17;84.76
76551;BME280;68768;53.156;18.164;2023-10-19T04:50:25;100579.02;;;3.17;84.69
76551;BME280;68768;53.156;18.164;2023-10-19T04:52:52;100573.59;;;3.16;84.69
76551;BME280;68768;53.156;18.164;2023-10-19T04:55:19;100575.52;;;3.17;84.35
76551;BME280;68768;53.156;18.164;2023-10-19T04:57:46;100572.34;;;3.20;84.26
76551;BME280;68768;53.156;18.164;2023-10-19T05:00:13;100571.09;;;3.21;84.73
76551;BME280;68768;53.156;18.164;2023-10-19T05:02:42;100572.48;;;3.22;84.48
76551;BME280;68768;53.156;18.164;2023-10-19T05:05:09;100570.39;;;3.23;85.16
76551;BME280;68768;53.156;18.164;2023-10-19T05:07:36;100568.63;;;3.23;84.79
76551;BME280;68768;53.156;18.164;2023-10-19T05:10:03;100569.50;;;3.23;84.58
76551;BME280;68768;53.156;18.164;2023-10-19T05:12:32;100571.58;;;3.25;84.18
76551;BME280;68768;53.156;18.164;2023-10-19T05:14:59;100572.23;;;3.28;84.47
76551;BME280;68768;53.156;18.164;2023-10-19T05:17:26;100569.42;;;3.30;84.21
76551;BME280;68768;53.156;18.164;2023-10-19T05:19:53;100568.70;;;3.32;84.42
76551;BME280;68768;53.156;18.164;2023-10-19T05:22:20;100568.34;;;3.34;84.16
76551;BME280;68768;53.156;18.164;2023-10-19T05:24:48;100566.89;;;3.36;83.90
76551;BME280;68768;53.156;18.164;2023-10-19T05:27:15;100563.35;;;3.39;83.75
76551;BME280;68768;53.156;18.164;2023-10-19T05:29:42;100563.86;;;3.41;83.62
76551;BME280;68768;53.156;18.164;2023-10-19T05:32:09;100568.40;;;3.44;83.77
76551;BME280;68768;53.156;18.164;2023-10-19T05:34:36;100567.48;;;3.46;84.00
76551;BME280;68768;53.156;18.164;2023-10-19T05:37:03;100571.84;;;3.48;84.22
76551;BME280;68768;53.156;18.164;2023-10-19T05:39:32;100571.83;;;3.49;84.16
76551;BME280;68768;53.156;18.164;2023-10-19T05:42:00;100570.77;;;3.51;83.74
76551;BME280;68768;53.156;18.164;2023-10-19T05:44:28;100574.24;;;3.54;83.88
76551;BME280;68768;53.156;18.164;2023-10-19T05:46:57;100572.09;;;3.57;83.69
76551;BME280;68768;53.156;18.164;2023-10-19T05:49:25;100574.86;;;3.60;83.79
76551;BME280;68768;53.156;18.164;2023-10-19T05:51:52;100579.39;;;3.64;83.66
76551;BME280;68768;53.156;18.164;2023-10-19T05:54:19;100578.96;;;3.68;83.65
76551;BME280;68768;53.156;18.164;2023-10-19T05:56:46;100571.20;;;3.73;83.72
76551;BME280;68768;53.156;18.164;2023-10-19T05:59:13;100569.23;;;3.76;84.43
76551;BME280;68768;53.156;18.164;2023-10-19T06:01:41;100563.91;;;3.80;83.81
76551;BME280;68768;53.156;18.164;2023-10-19T06:04:08;100562.79;;;3.85;84.13
76551;BME280;68768;53.156;18.164;2023-10-19T06:06:35;100555.17;;;3.89;84.10
76551;BME280;68768;53.156;18.164;2023-10-19T06:09:03;100555.48;;;3.94;83.62
76551;BME280;68768;53.156;18.164;2023-10-19T06:11:31;100558.71;;;4.00;83.64
76551;BME280;68768;53.156;18.164;2023-10-19T06:14:04;100562.31;;;4.07;83.46
76551;BME280;68768;53.156;18.164;2023-10-19T06:16:34;100555.36;;;4.14;83.52
76551;BME280;68768;53.156;18.164;2023-10-19T06:19:01;100549.67;;;4.18;83.88
76551;BME280;68768;53.156;18.164;2023-10-19T06:21:28;100547.48;;;4.24;83.71
76551;BME280;68768;53.156;18.164;2023-10-19T06:23:57;100547.20;;;4.30;83.48
76551;BME280;68768;53.156;18.164;2023-10-19T06:26:25;100547.66;;;4.35;83.77
76551;BME280;68768;53.156;18.164;2023-10-19T06:28:52;100547.39;;;4.41;83.62
76551;BME280;68768;53.156;18.164;2023-10-19T06:31:24;100550.13;;;4.46;84.01
76551;BME280;68768;53.156;18.164;2023-10-19T06:33:52;100550.94;;;4.50;83.88
76551;BME280;68768;53.156;18.164;2023-10-19T06:36:19;100546.33;;;4.53;83.41
76551;BME280;68768;53.156;18.164;2023-10-19T06:38:46;100544.14;;;4.58;83.19
76551;BME280;68768;53.156;18.164;2023-10-19T06:41:13;100549.32;;;4.63;83.19
76551;BME280;68768;53.156;18.164;2023-10-19T06:43:41;100545.77;;;4.66;83.09
76551;BME280;68768;53.156;18.164;2023-10-19T06:46:08;100542.85;;;4.71;83.17
76551;BME280;68768;53.156;18.164;2023-10-19T06:48:38;100547.02;;;4.75;82.86
76551;BME280;68768;53.156;18.164;2023-10-19T06:51:05;100556.27;;;4.78;82.94
76551;BME280;68768;53.156;18.164;2023-10-19T06:53:32;100551.80;;;4.83;82.89
76551;BME280;68768;53.156;18.164;2023-10-19T06:56:00;100545.39;;;4.88;82.64
76551;BME280;68768;53.156;18.164;2023-10-19T06:58:27;100540.55;;;4.92;82.76
76551;BME280;68768;53.156;18.164;2023-10-19T07:00:54;100537.33;;;4.97;82.97
76551;BME280;68768;53.156;18.164;2023-10-19T07:03:26;100534.95;;;5.00;82.90
76551;BME280;68768;53.156;18.164;2023-10-19T07:05:55;100528.05;;;5.02;82.71
76551;BME280;68768;53.156;18.164;2023-10-19T07:08:23;100524.31;;;5.05;82.69
76551;BME280;68768;53.156;18.164;2023-10-19T07:10:50;100521.77;;;5.09;82.64
76551;BME280;68768;53.156;18.164;2023-10-19T07:13:17;100523.98;;;5.13;82.51
76551;BME280;68768;53.156;18.164;2023-10-19T07:15:48;100516.39;;;5.14;82.96
76551;BME280;68768;53.156;18.164;2023-10-19T07:18:18;100509.46;;;5.18;83.06
76551;BME280;68768;53.156;18.164;2023-10-19T07:20:45;100504.65;;;5.21;82.93
76551;BME280;68768;53.156;18.164;2023-10-19T07:23:15;100500.21;;;5.23;82.92
76551;BME280;68768;53.156;18.164;2023-10-19T07:25:47;100495.59;;;5.26;82.95
76551;BME280;68768;53.156;18.164;2023-10-19T07:28:15;100486.87;;;5.30;82.69
76551;BME280;68768;53.156;18.164;2023-10-19T07:30:43;100488.38;;;5.34;82.76
76551;BME280;68768;53.156;18.164;2023-10-19T07:33:11;100488.08;;;5.40;82.91
76551;BME280;68768;53.156;18.164;2023-10-19T07:35:44;100485.16;;;5.45;82.89
76551;BME280;68768;53.156;18.164;2023-10-19T07:38:14;100483.95;;;5.52;82.70
76551;BME280;68768;53.156;18.164;2023-10-19T07:40:42;100485.63;;;5.57;82.89
76551;BME280;68768;53.156;18.164;2023-10-19T07:43:10;100482.70;;;5.60;82.89
76551;BME280;68768;53.156;18.164;2023-10-19T07:45:37;100482.67;;;5.63;82.79
76551;BME280;68768;53.156;18.164;2023-10-19T07:48:05;100488.09;;;5.64;82.41
76551;BME280;68768;53.156;18.164;2023-10-19T07:50:34;100481.38;;;5.66;82.28
76551;BME280;68768;53.156;18.164;2023-10-19T07:53:02;100480.29;;;5.67;82.29
76551;BME280;68768;53.156;18.164;2023-10-19T07:55:30;100481.95;;;5.71;82.37
76551;BME280;68768;53.156;18.164;2023-10-19T07:58:00;100476.10;;;5.73;82.68
76551;BME280;68768;53.156;18.164;2023-10-19T08:00:29;100473.96;;;5.74;82.83
76551;BME280;68768;53.156;18.164;2023-10-19T08:02:56;100470.91;;;5.77;82.92
76551;BME280;68768;53.156;18.164;2023-10-19T08:05:23;100463.13;;;5.79;82.54
76551;BME280;68768;53.156;18.164;2023-10-19T08:07:50;100457.73;;;5.83;82.54
76551;BME280;68768;53.156;18.164;2023-10-19T08:10:18;100456.92;;;5.89;82.56
76551;BME280;68768;53.156;18.164;2023-10-19T08:12:47;100449.93;;;5.94;82.44
76551;BME280;68768;53.156;18.164;2023-10-19T08:15:16;100448.05;;;6.00;82.39
76551;BME280;68768;53.156;18.164;2023-10-19T08:17:49;100442.77;;;6.07;82.35
76551;BME280;68768;53.156;18.164;2023-10-19T08:20:17;100438.42;;;6.12;82.42
76551;BME280;68768;53.156;18.164;2023-10-19T08:22:53;100435.65;;;6.17;82.24
76551;BME280;68768;53.156;18.164;2023-10-19T08:25:24;100432.88;;;6.22;82.16
76551;BME280;68768;53.156;18.164;2023-10-19T08:27:54;100421.02;;;6.24;82.30
76551;BME280;68768;53.156;18.164;2023-10-19T08:30:24;100418.77;;;6.29;82.22
76551;BME280;68768;53.156;18.164;2023-10-19T08:32:51;100412.14;;;6.33;82.16
76551;BME280;68768;53.156;18.164;2023-10-19T08:35:20;100414.52;;;6.37;82.21
76551;BME280;68768;53.156;18.164;2023-10-19T08:37:55;100409.24;;;6.43;82.08
76551;BME280;68768;53.156;18.164;2023-10-19T08:40:25;100402.73;;;6.50;82.14
76551;BME280;68768;53.156;18.164;2023-10-19T08:42:53;100402.91;;;6.56;81.93
76551;BME280;68768;53.156;18.164;2023-10-19T08:45:21;100402.05;;;6.62;81.94
76551;BME280;68768;53.156;18.164;2023-10-19T08:47:59;100402.39;;;6.70;81.79
76551;BME280;68768;53.156;18.164;2023-10-19T08:50:32;100399.17;;;6.77;81.76
76551;BME280;68768;53.156;18.164;2023-10-19T08:53:02;100399.14;;;6.84;81.51
76551;BME280;68768;53.156;18.164;2023-10-19T08:55:32;100397.74;;;6.90;81.32
76551;BME280;68768;53.156;18.164;2023-10-19T08:58:01;100393.88;;;6.95;81.28
76551;BME280;68768;53.156;18.164;2023-10-19T09:00:42;100386.34;;;7.01;81.06
76551;BME280;68768;53.156;18.164;2023-10-19T09:03:13;100383.66;;;7.07;80.95
76551;BME280;68768;53.156;18.164;2023-10-19T09:05:41;100386.89;;;7.11;80.77
76551;BME280;68768;53.156;18.164;2023-10-19T09:08:08;100384.82;;;7.15;80.64
76551;BME280;68768;53.156;18.164;2023-10-19T09:10:36;100389.14;;;7.19;80.66
76551;BME280;68768;53.156;18.164;2023-10-19T09:13:05;100380.55;;;7.23;80.52
76551;BME280;68768;53.156;18.164;2023-10-19T09:15:36;100374.79;;;7.26;80.60
76551;BME280;68768;53.156;18.164;2023-10-19T09:18:18;100374.87;;;7.30;80.37
76551;BME280;68768;53.156;18.164;2023-10-19T09:20:47;100375.77;;;7.34;80.36
76551;BME280;68768;53.156;18.164;2023-10-19T09:23:24;100370.79;;;7.36;80.02
76551;BME280;68768;53.156;18.164;2023-10-19T09:25:58;100371.40;;;7.39;80.34
76551;BME280;68768;53.156;18.164;2023-10-19T09:28:25;100373.41;;;7.43;80.17
76551;BME280;68768;53.156;18.164;2023-10-19T09:30:52;100367.11;;;7.47;80.07
76551;BME280;68768;53.156;18.164;2023-10-19T09:33:20;100357.49;;;7.50;79.98
76551;BME280;68768;53.156;18.164;2023-10-19T09:35:49;100354.20;;;7.53;80.04
76551;BME280;68768;53.156;18.164;2023-10-19T09:38:20;100348.83;;;7.55;79.88
76551;BME280;68768;53.156;18.164;2023-10-19T09:40:51;100347.39;;;7.56;79.86
76551;BME280;68768;53.156;18.164;2023-10-19T09:45:56;100336.58;;;7.58;79.60
76551;BME280;68768;53.156;18.164;2023-10-19T09:48:27;100330.04;;;7.58;79.46
76551;BME280;68768;53.156;18.164;2023-10-19T09:50:55;100323.52;;;7.57;79.52
76551;BME280;68768;53.156;18.164;2023-10-19T09:53:29;100321.72;;;7.58;79.49
76551;BME280;68768;53.156;18.164;2023-10-19T09:55:59;100318.69;;;7.59;79.39
76551;BME280;68768;53.156;18.164;2023-10-19T09:58:35;100312.48;;;7.60;79.26
76551;BME280;68768;53.156;18.164;2023-10-19T10:01:04;100307.02;;;7.60;79.10
76551;BME280;68768;53.156;18.164;2023-10-19T10:06:14;100292.19;;;7.59;79.02
76551;BME280;68768;53.156;18.164;2023-10-19T10:08:45;100283.54;;;7.59;78.88
76551;BME280;68768;53.156;18.164;2023-10-19T10:13:41;100273.30;;;7.64;79.08
76551;BME280;68768;53.156;18.164;2023-10-19T10:16:08;100273.23;;;7.66;79.04
76551;BME280;68768;53.156;18.164;2023-10-19T10:18:35;100263.63;;;7.68;78.88
76551;BME280;68768;53.156;18.164;2023-10-19T10:21:13;100264.76;;;7.72;78.86
76551;BME280;68768;53.156;18.164;2023-10-19T10:23:47;100273.05;;;7.77;78.86
76551;BME280;68768;53.156;18.164;2023-10-19T10:26:18;100273.05;;;7.82;78.82
76551;BME280;68768;53.156;18.164;2023-10-19T10:28:47;100277.06;;;7.89;78.74
76551;BME280;68768;53.156;18.164;2023-10-19T10:31:21;100268.35;;;7.95;78.38
76551;BME280;68768;53.156;18.164;2023-10-19T10:33:50;100268.81;;;8.02;78.30
76551;BME280;68768;53.156;18.164;2023-10-19T10:36:18;100273.69;;;8.09;78.10
76551;BME280;68768;53.156;18.164;2023-10-19T10:38:47;100277.14;;;8.17;78.25
76551;BME280;68768;53.156;18.164;2023-10-19T10:41:22;100282.02;;;8.24;78.20
76551;BME280;68768;53.156;18.164;2023-10-19T10:43:56;100284.14;;;8.29;78.02
76551;BME280;68768;53.156;18.164;2023-10-19T10:46:25;100282.27;;;8.33;77.74
76551;BME280;68768;53.156;18.164;2023-10-19T10:48:52;100282.44;;;8.38;77.70
76551;BME280;68768;53.156;18.164;2023-10-19T10:51:24;100274.70;;;8.41;77.74
76551;BME280;68768;53.156;18.164;2023-10-19T10:53:52;100267.70;;;8.44;77.56
76551;BME280;68768;53.156;18.164;2023-10-19T10:56:21;100267.45;;;8.46;77.53
76551;BME280;68768;53.156;18.164;2023-10-19T10:58:49;100266.08;;;8.45;77.27
76551;BME280;68768;53.156;18.164;2023-10-19T11:01:46;100271.11;;;8.43;77.03
76551;BME280;68768;53.156;18.164;2023-10-19T11:04:13;100272.86;;;8.44;77.27
76551;BME280;68768;53.156;18.164;2023-10-19T11:06:53;100277.21;;;8.45;76.82
76551;BME280;68768;53.156;18.164;2023-10-19T11:09:22;100270.45;;;8.46;76.94
76551;BME280;68768;53.156;18.164;2023-10-19T11:11:50;100269.10;;;8.50;76.72
76551;BME280;68768;53.156;18.164;2023-10-19T11:14:18;100269.20;;;8.52;76.35
76551;BME280;68768;53.156;18.164;2023-10-19T11:16:46;100263.48;;;8.54;76.56
76551;BME280;68768;53.156;18.164;2023-10-19T11:19:13;100264.08;;;8.56;76.23
76551;BME280;68768;53.156;18.164;2023-10-19T11:21:52;100256.89;;;8.59;76.09
76551;BME280;68768;53.156;18.164;2023-10-19T11:24:26;100244.73;;;8.63;75.91
76551;BME280;68768;53.156;18.164;2023-10-19T11:26:56;100232.54;;;8.67;76.08
76551;BME280;68768;53.156;18.164;2023-10-19T11:29:23;100223.02;;;8.71;76.04
76551;BME280;68768;53.156;18.164;2023-10-19T11:32:00;100212.49;;;8.73;75.80
76551;BME280;68768;53.156;18.164;2023-10-19T11:34:28;100218.88;;;8.77;75.64
76551;BME280;68768;53.156;18.164;2023-10-19T11:36:56;100220.02;;;8.79;75.40
76551;BME280;68768;53.156;18.164;2023-10-19T11:39:23;100212.18;;;8.81;75.51
76551;BME280;68768;53.156;18.164;2023-10-19T11:41:50;100210.33;;;8.83;75.18
76551;BME280;68768;53.156;18.164;2023-10-19T11:44:17;100206.33;;;8.85;74.78
76551;BME280;68768;53.156;18.164;2023-10-19T11:46:44;100207.84;;;8.88;74.93
76551;BME280;68768;53.156;18.164;2023-10-19T11:49:11;100208.33;;;8.89;74.93
76551;BME280;68768;53.156;18.164;2023-10-19T11:51:38;100201.21;;;8.90;74.84
76551;BME280;68768;53.156;18.164;2023-10-19T11:54:05;100190.19;;;8.92;74.77
76551;BME280;68768;53.156;18.164;2023-10-19T11:56:35;100186.75;;;8.94;74.80
76551;BME280;68768;53.156;18.164;2023-10-19T11:59:02;100179.23;;;8.96;74.81
76551;BME280;68768;53.156;18.164;2023-10-19T12:01:28;100172.80;;;8.97;74.73
76551;BME280;68768;53.156;18.164;2023-10-19T12:03:56;100163.77;;;8.97;74.84
76551;BME280;68768;53.156;18.164;2023-10-19T12:06:23;100160.23;;;8.97;74.54
76551;BME280;68768;53.156;18.164;2023-10-19T12:08:50;100155.96;;;8.97;74.19
76551;BME280;68768;53.156;18.164;2023-10-19T12:11:17;100145.08;;;8.95;74.17
76551;BME280;68768;53.156;18.164;2023-10-19T12:13:46;100145.00;;;8.97;74.10
76551;BME280;68768;53.156;18.164;2023-10-19T12:16:14;100140.36;;;8.98;73.72
76551;BME280;68768;53.156;18.164;2023-10-19T12:18:45;100140.84;;;9.00;73.81
76551;BME280;68768;53.156;18.164;2023-10-19T12:21:12;100145.55;;;9.01;73.65
76551;BME280;68768;53.156;18.164;2023-10-19T12:23:42;100141.80;;;9.02;73.40
76551;BME280;68768;53.156;18.164;2023-10-19T12:26:17;100136.90;;;9.05;73.47
76551;BME280;68768;53.156;18.164;2023-10-19T12:28:44;100129.97;;;9.05;73.08
76551;BME280;68768;53.156;18.164;2023-10-19T12:31:13;100134.32;;;9.07;73.46
76551;BME280;68768;53.156;18.164;2023-10-19T12:33:40;100137.59;;;9.10;73.53
76551;BME280;68768;53.156;18.164;2023-10-19T12:36:08;100133.80;;;9.11;72.62
76551;BME280;68768;53.156;18.164;2023-10-19T12:38:58;100138.85;;;9.13;71.99
76551;BME280;68768;53.156;18.164;2023-10-19T12:41:26;100127.31;;;9.14;71.68
76551;BME280;68768;53.156;18.164;2023-10-19T12:43:54;100131.03;;;9.18;71.95
76551;BME280;68768;53.156;18.164;2023-10-19T12:46:24;100118.50;;;9.21;72.44
76551;BME280;68768;53.156;18.164;2023-10-19T12:48:51;100110.81;;;9.23;71.76
76551;BME280;68768;53.156;18.164;2023-10-19T12:51:18;100110.35;;;9.26;72.02
76551;BME280;68768;53.156;18.164;2023-10-19T12:53:53;100112.64;;;9.30;71.67
76551;BME280;68768;53.156;18.164;2023-10-19T12:56:21;100115.02;;;9.33;71.63
76551;BME280;68768;53.156;18.164;2023-10-19T12:58:51;100115.00;;;9.33;71.48
76551;BME280;68768;53.156;18.164;2023-10-19T13:01:17;100110.59;;;9.33;71.31
76551;BME280;68768;53.156;18.164;2023-10-19T13:03:46;100099.65;;;9.32;71.12
76551;BME280;68768;53.156;18.164;2023-10-19T13:06:14;100086.97;;;9.30;71.34
76551;BME280;68768;53.156;18.164;2023-10-19T13:08:41;100080.69;;;9.28;70.83
76551;BME280;68768;53.156;18.164;2023-10-19T13:11:09;100077.55;;;9.27;70.79
76551;BME280;68768;53.156;18.164;2023-10-19T13:13:41;100082.61;;;9.25;70.62
76551;BME280;68768;53.156;18.164;2023-10-19T13:16:09;100077.00;;;9.23;71.31